SBKP/CPQ METAR and TAF weather

Enter ICAO airport designator
Station Type Date Time Source
SBKP METAR 2019/12/08 11:00 UTC NOAA

SBKP 081100Z 13007KT 090V160 CAVOK 21/14 Q1016


Station Type Date Time Source
SBKP Decoded METAR 2019/12/08 11:00 UTC NOAA

Campinas Aeroporto , Brazil (SBKP) 23-00S 047-08W 661M
Dec 08, 2019 - 06:00 AM EST / 2019.12.08 1100 UTC
Wind: from the SE (130 degrees) at 8 MPH (7 KT) (direction variable):0
Visibility: greater than 7 mile(s):0
Temperature: 69 F (21 C)
Dew Point: 57 F (14 C)
Relative Humidity: 64%
Pressure (altimeter): 30.00 in. Hg (1016 hPa)
ob: SBKP 081100Z 13007KT 090V160 CAVOK 21/14 Q1016
cycle: 11

Station Type Date Time Source
SBKP TAF 2019/12/08 12:09 UTC NOAA

TAF SBKP 081005Z 0812/0912 13010KT CAVOK TX30/0818Z TN16/0909Z
BECMG 0813/0815 SCT030
BECMG 0818/0820 15010KT CAVOK
BECMG 0904/0906 07005KT
RMK PHM

Example: see airport list